sensor_id;sensor_type;location;lat;lon;timestamp;temperature;humidity
7028;DHT22;3555;53.248;10.336;2023-03-01T00:01:28;1.20;99.90
7028;DHT22;3555;53.248;10.336;2023-03-01T00:03:57;1.00;99.90
7028;DHT22;3555;53.248;10.336;2023-03-01T00:06:25;1.00;1.00
7028;DHT22;3555;53.248;10.336;2023-03-01T00:08:52;1.20;1.00
7028;DHT22;3555;53.248;10.336;2023-03-01T00:11:21;1.30;99.90
7028;DHT22;3555;53.248;10.336;2023-03-01T00:13:49;1.30;99.90
7028;DHT22;3555;53.248;10.336;2023-03-01T00:16:18;1.40;99.90
7028;DHT22;3555;53.248;10.336;2023-03-01T00:18:46;1.50;99.90
7028;DHT22;3555;53.248;10.336;2023-03-01T00:21:14;1.60;99.90
7028;DHT22;3555;53.248;10.336;2023-03-01T00:23:41;1.30;99.90
7028;DHT22;3555;53.248;10.336;2023-03-01T00:26:09;1.30;99.90
7028;DHT22;3555;53.248;10.336;2023-03-01T00:28:36;1.20;99.90
7028;DHT22;3555;53.248;10.336;2023-03-01T00:31:04;1.10;99.90
7028;DHT22;3555;53.248;10.336;2023-03-01T00:33:30;1.20;99.90
7028;DHT22;3555;53.248;10.336;2023-03-01T00:35:58;1.10;99.90
7028;DHT22;3555;53.248;10.336;2023-03-01T00:38:26;1.20;99.90
7028;DHT22;3555;53.248;10.336;2023-03-01T00:40:53;1.10;99.90
7028;DHT22;3555;53.248;10.336;2023-03-01T00:43:20;1.00;99.90
7028;DHT22;3555;53.248;10.336;2023-03-01T00:45:47;0.90;99.90
7028;DHT22;3555;53.248;10.336;2023-03-01T00:48:13;0.90;99.90
7028;DHT22;3555;53.248;10.336;2023-03-01T00:50:40;0.60;99.90
7028;DHT22;3555;53.248;10.336;2023-03-01T00:53:07;0.50;1.00
7028;DHT22;3555;53.248;10.336;2023-03-01T00:55:36;0.50;1.00
7028;DHT22;3555;53.248;10.336;2023-03-01T00:58:03;0.50;99.90
7028;DHT22;3555;53.248;10.336;2023-03-01T01:00:29;0.40;99.90
7028;DHT22;3555;53.248;10.336;2023-03-01T01:02:56;0.40;99.90
7028;DHT22;3555;53.248;10.336;2023-03-01T01:05:23;0.30;99.90
7028;DHT22;3555;53.248;10.336;2023-03-01T01:07:50;-0.10;99.90
7028;DHT22;3555;53.248;10.336;2023-03-01T01:10:17;-0.40;1.00
7028;DHT22;3555;53.248;10.336;2023-03-01T01:12:46;-0.50;1.00
7028;DHT22;3555;53.248;10.336;2023-03-01T01:15:13;-0.30;69.30
7028;DHT22;3555;53.248;10.336;2023-03-01T01:17:42;-0.30;1.00
7028;DHT22;3555;53.248;10.336;2023-03-01T01:20:10;-0.80;1.00
7028;DHT22;3555;53.248;10.336;2023-03-01T01:22:37;-1.00;99.90
7028;DHT22;3555;53.248;10.336;2023-03-01T01:25:04;-0.90;1.00
7028;DHT22;3555;53.248;10.336;2023-03-01T01:27:31;-0.70;1.00
7028;DHT22;3555;53.248;10.336;2023-03-01T01:29:59;-0.60;99.90
7028;DHT22;3555;53.248;10.336;2023-03-01T01:32:26;-0.30;99.90
7028;DHT22;3555;53.248;10.336;2023-03-01T01:34:53;-0.20;1.00
7028;DHT22;3555;53.248;10.336;2023-03-01T01:37:20;-0.10;1.00
7028;DHT22;3555;53.248;10.336;2023-03-01T01:39:47;-0.10;1.00
7028;DHT22;3555;53.248;10.336;2023-03-01T01:42:15;0.00;1.00
7028;DHT22;3555;53.248;10.336;2023-03-01T01:44:46;0.00;1.00
7028;DHT22;3555;53.248;10.336;2023-03-01T01:47:17;0.10;1.00
7028;DHT22;3555;53.248;10.336;2023-03-01T01:49:47;0.20;1.00
7028;DHT22;3555;53.248;10.336;2023-03-01T01:52:18;0.20;1.00
7028;DHT22;3555;53.248;10.336;2023-03-01T01:54:50;0.20;1.00
7028;DHT22;3555;53.248;10.336;2023-03-01T01:57:20;0.20;1.00
7028;DHT22;3555;53.248;10.336;2023-03-01T01:59:51;0.30;1.00
7028;DHT22;3555;53.248;10.336;2023-03-01T02:02:21;0.10;1.00
7028;DHT22;3555;53.248;10.336;2023-03-01T02:04:48;-0.20;1.00
7028;DHT22;3555;53.248;10.336;2023-03-01T02:07:18;-0.30;4.70
7028;DHT22;3555;53.248;10.336;2023-03-01T02:09:48;-0.30;2.70
7028;DHT22;3555;53.248;10.336;2023-03-01T02:12:17;-0.40;99.90
7028;DHT22;3555;53.248;10.336;2023-03-01T02:14:45;-0.60;88.60
7028;DHT22;3555;53.248;10.336;2023-03-01T02:17:13;-0.50;99.90
7028;DHT22;3555;53.248;10.336;2023-03-01T02:19:50;-0.60;99.90
7028;DHT22;3555;53.248;10.336;2023-03-01T02:22:22;-0.50;99.90
7028;DHT22;3555;53.248;10.336;2023-03-01T02:24:58;-0.60;84.70
7028;DHT22;3555;53.248;10.336;2023-03-01T02:27:35;-0.70;1.00
7028;DHT22;3555;53.248;10.336;2023-03-01T02:30:06;-0.70;99.90
7028;DHT22;3555;53.248;10.336;2023-03-01T02:32:38;-0.60;99.90
7028;DHT22;3555;53.248;10.336;2023-03-01T02:35:08;-0.50;1.00
7028;DHT22;3555;53.248;10.336;2023-03-01T02:37:36;-0.60;43.20
7028;DHT22;3555;53.248;10.336;2023-03-01T02:40:06;-0.70;99.90
7028;DHT22;3555;53.248;10.336;2023-03-01T02:42:42;-0.60;99.90
7028;DHT22;3555;53.248;10.336;2023-03-01T02:45:13;-0.40;99.90
7028;DHT22;3555;53.248;10.336;2023-03-01T02:47:40;-0.50;1.00
7028;DHT22;3555;53.248;10.336;2023-03-01T02:50:31;-0.50;4.20
7028;DHT22;3555;53.248;10.336;2023-03-01T02:53:08;-0.40;1.00
7028;DHT22;3555;53.248;10.336;2023-03-01T02:55:37;-0.40;98.40
7028;DHT22;3555;53.248;10.336;2023-03-01T02:58:05;-0.30;1.00
7028;DHT22;3555;53.248;10.336;2023-03-01T03:00:37;-0.30;1.00
7028;DHT22;3555;53.248;10.336;2023-03-01T03:03:06;-0.30;1.00
7028;DHT22;3555;53.248;10.336;2023-03-01T03:05:34;-0.30;1.60
7028;DHT22;3555;53.248;10.336;2023-03-01T03:08:02;-0.30;12.30
7028;DHT22;3555;53.248;10.336;2023-03-01T03:10:31;-0.30;33.50
7028;DHT22;3555;53.248;10.336;2023-03-01T03:13:01;-0.10;12.70
7028;DHT22;3555;53.248;10.336;2023-03-01T03:15:29;-0.20;1.00
7028;DHT22;3555;53.248;10.336;2023-03-01T03:17:58;-0.20;1.00
7028;DHT22;3555;53.248;10.336;2023-03-01T03:20:27;-0.40;1.00
7028;DHT22;3555;53.248;10.336;2023-03-01T03:22:55;-0.50;99.90
7028;DHT22;3555;53.248;10.336;2023-03-01T03:25:24;-0.60;1.00
7028;DHT22;3555;53.248;10.336;2023-03-01T03:27:52;-1.00;33.90
7028;DHT22;3555;53.248;10.336;2023-03-01T03:30:23;-1.10;99.90
7028;DHT22;3555;53.248;10.336;2023-03-01T03:32:50;-1.10;99.90
7028;DHT22;3555;53.248;10.336;2023-03-01T03:35:21;-1.00;99.90
7028;DHT22;3555;53.248;10.336;2023-03-01T03:37:50;-1.00;1.00
7028;DHT22;3555;53.248;10.336;2023-03-01T03:40:31;-0.90;1.00
7028;DHT22;3555;53.248;10.336;2023-03-01T03:42:58;-1.00;1.00
7028;DHT22;3555;53.248;10.336;2023-03-01T03:45:25;-0.90;1.00
7028;DHT22;3555;53.248;10.336;2023-03-01T03:47:52;-0.80;1.00
7028;DHT22;3555;53.248;10.336;2023-03-01T03:50:20;-0.70;99.90
7028;DHT22;3555;53.248;10.336;2023-03-01T03:52:47;-0.40;99.90
7028;DHT22;3555;53.248;10.336;2023-03-01T03:55:14;-0.50;38.60
7028;DHT22;3555;53.248;10.336;2023-03-01T03:57:45;-0.50;1.00
7028;DHT22;3555;53.248;10.336;2023-03-01T04:00:18;-0.40;1.00
7028;DHT22;3555;53.248;10.336;2023-03-01T04:02:46;-0.50;1.00
7028;DHT22;3555;53.248;10.336;2023-03-01T04:05:15;-0.40;1.00
7028;DHT22;3555;53.248;10.336;2023-03-01T04:07:44;-0.40;1.00
7028;DHT22;3555;53.248;10.336;2023-03-01T04:10:12;0.00;78.60
7028;DHT22;3555;53.248;10.336;2023-03-01T04:12:39;-0.20;97.50
7028;DHT22;3555;53.248;10.336;2023-03-01T04:15:10;-0.40;99.90
7028;DHT22;3555;53.248;10.336;2023-03-01T04:17:39;-0.40;64.00
7028;DHT22;3555;53.248;10.336;2023-03-01T04:20:08;-0.20;99.90
7028;DHT22;3555;53.248;10.336;2023-03-01T04:22:38;-0.40;99.90
7028;DHT22;3555;53.248;10.336;2023-03-01T04:25:07;-0.50;99.90
7028;DHT22;3555;53.248;10.336;2023-03-01T04:27:40;-0.60;99.90
7028;DHT22;3555;53.248;10.336;2023-03-01T04:30:08;-0.70;99.90
7028;DHT22;3555;53.248;10.336;2023-03-01T04:32:35;-1.00;1.00
7028;DHT22;3555;53.248;10.336;2023-03-01T04:35:02;-1.40;99.90
7028;DHT22;3555;53.248;10.336;2023-03-01T04:37:29;-1.70;99.90
7028;DHT22;3555;53.248;10.336;2023-03-01T04:39:56;-1.90;1.00
7028;DHT22;3555;53.248;10.336;2023-03-01T04:42:25;-1.90;68.40
7028;DHT22;3555;53.248;10.336;2023-03-01T04:44:52;-1.80;99.90
7028;DHT22;3555;53.248;10.336;2023-03-01T04:47:19;-1.60;74.10
7028;DHT22;3555;53.248;10.336;2023-03-01T04:49:45;-1.60;1.00
7028;DHT22;3555;53.248;10.336;2023-03-01T04:52:12;-1.50;99.90
7028;DHT22;3555;53.248;10.336;2023-03-01T04:54:39;-1.50;1.00
7028;DHT22;3555;53.248;10.336;2023-03-01T04:57:06;-1.50;1.00
7028;DHT22;3555;53.248;10.336;2023-03-01T04:59:34;-1.60;1.00
7028;DHT22;3555;53.248;10.336;2023-03-01T05:02:02;-2.00;46.60
7028;DHT22;3555;53.248;10.336;2023-03-01T05:04:30;-1.90;1.00
7028;DHT22;3555;53.248;10.336;2023-03-01T05:06:57;-1.80;1.00
7028;DHT22;3555;53.248;10.336;2023-03-01T05:09:24;-1.70;1.00
7028;DHT22;3555;53.248;10.336;2023-03-01T05:11:51;-1.60;99.90
7028;DHT22;3555;53.248;10.336;2023-03-01T05:14:17;-1.60;99.90
7028;DHT22;3555;53.248;10.336;2023-03-01T05:16:46;-1.50;99.90
7028;DHT22;3555;53.248;10.336;2023-03-01T05:19:13;-1.30;57.70
7028;DHT22;3555;53.248;10.336;2023-03-01T05:21:41;-1.40;1.00
7028;DHT22;3555;53.248;10.336;2023-03-01T05:24:22;-1.20;1.00
7028;DHT22;3555;53.248;10.336;2023-03-01T05:26:49;-1.10;1.00
7028;DHT22;3555;53.248;10.336;2023-03-01T05:29:17;-1.00;1.00
7028;DHT22;3555;53.248;10.336;2023-03-01T05:31:52;-0.90;1.00
7028;DHT22;3555;53.248;10.336;2023-03-01T05:34:22;-0.90;1.00
7028;DHT22;3555;53.248;10.336;2023-03-01T05:36:49;-0.90;1.00
7028;DHT22;3555;53.248;10.336;2023-03-01T05:39:19;-1.00;99.90
7028;DHT22;3555;53.248;10.336;2023-03-01T05:41:46;-1.20;1.00
7028;DHT22;3555;53.248;10.336;2023-03-01T05:44:13;-1.20;1.00
7028;DHT22;3555;53.248;10.336;2023-03-01T05:46:40;-1.20;27.90
7028;DHT22;3555;53.248;10.336;2023-03-01T05:49:08;-1.20;99.90
7028;DHT22;3555;53.248;10.336;2023-03-01T05:51:35;-1.20;59.60
7028;DHT22;3555;53.248;10.336;2023-03-01T05:54:02;-1.40;1.00
7028;DHT22;3555;53.248;10.336;2023-03-01T05:56:32;-1.80;1.00
7028;DHT22;3555;53.248;10.336;2023-03-01T05:59:00;-1.80;99.90
7028;DHT22;3555;53.248;10.336;2023-03-01T06:01:27;-1.60;99.90
7028;DHT22;3555;53.248;10.336;2023-03-01T06:03:55;-1.60;99.90
7028;DHT22;3555;53.248;10.336;2023-03-01T06:06:24;-1.50;1.00
7028;DHT22;3555;53.248;10.336;2023-03-01T06:08:51;-1.40;1.00
7028;DHT22;3555;53.248;10.336;2023-03-01T06:11:19;-1.50;1.00
7028;DHT22;3555;53.248;10.336;2023-03-01T06:13:46;-1.70;70.60
7028;DHT22;3555;53.248;10.336;2023-03-01T06:16:14;-1.80;99.90
7028;DHT22;3555;53.248;10.336;2023-03-01T06:18:41;-1.60;99.90
7028;DHT22;3555;53.248;10.336;2023-03-01T06:21:08;-1.50;1.00
7028;DHT22;3555;53.248;10.336;2023-03-01T06:23:36;-1.50;99.90
7028;DHT22;3555;53.248;10.336;2023-03-01T06:26:06;-1.50;99.90
7028;DHT22;3555;53.248;10.336;2023-03-01T06:28:33;-1.50;4.80
7028;DHT22;3555;53.248;10.336;2023-03-01T06:31:00;-1.30;8.40
7028;DHT22;3555;53.248;10.336;2023-03-01T06:33:27;-1.10;99.90
7028;DHT22;3555;53.248;10.336;2023-03-01T06:35:55;-1.80;1.00
7028;DHT22;3555;53.248;10.336;2023-03-01T06:38:22;-2.10;99.90
7028;DHT22;3555;53.248;10.336;2023-03-01T06:40:53;-2.10;1.00
7028;DHT22;3555;53.248;10.336;2023-03-01T06:43:22;-2.00;99.90
7028;DHT22;3555;53.248;10.336;2023-03-01T06:45:49;-1.80;99.90
7028;DHT22;3555;53.248;10.336;2023-03-01T06:48:16;-1.60;87.40
7028;DHT22;3555;53.248;10.336;2023-03-01T06:50:43;-1.40;1.00
7028;DHT22;3555;53.248;10.336;2023-03-01T06:53:09;-1.20;99.90
7028;DHT22;3555;53.248;10.336;2023-03-01T06:55:36;-1.10;99.90
7028;DHT22;3555;53.248;10.336;2023-03-01T06:58:04;-0.90;1.00
7028;DHT22;3555;53.248;10.336;2023-03-01T07:00:32;-0.70;1.00
7028;DHT22;3555;53.248;10.336;2023-03-01T07:03:00;-0.60;1.00
7028;DHT22;3555;53.248;10.336;2023-03-01T07:05:28;-0.50;1.00
7028;DHT22;3555;53.248;10.336;2023-03-01T07:07:55;-0.50;1.00
7028;DHT22;3555;53.248;10.336;2023-03-01T07:10:22;-0.50;99.90
7028;DHT22;3555;53.248;10.336;2023-03-01T07:12:49;-0.40;1.00
7028;DHT22;3555;53.248;10.336;2023-03-01T07:15:17;-0.40;43.20
7028;DHT22;3555;53.248;10.336;2023-03-01T07:17:44;-0.60;1.00
7028;DHT22;3555;53.248;10.336;2023-03-01T07:20:13;-0.90;1.00
7028;DHT22;3555;53.248;10.336;2023-03-01T07:22:40;-1.00;1.00
7028;DHT22;3555;53.248;10.336;2023-03-01T07:25:09;-0.80;99.90
7028;DHT22;3555;53.248;10.336;2023-03-01T07:27:36;-0.70;1.00
7028;DHT22;3555;53.248;10.336;2023-03-01T07:30:04;-0.50;1.00
7028;DHT22;3555;53.248;10.336;2023-03-01T07:32:32;-0.40;99.90
7028;DHT22;3555;53.248;10.336;2023-03-01T07:34:59;-0.30;1.00
7028;DHT22;3555;53.248;10.336;2023-03-01T07:37:26;-0.20;1.00
7028;DHT22;3555;53.248;10.336;2023-03-01T07:39:53;-0.10;1.00
7028;DHT22;3555;53.248;10.336;2023-03-01T07:42:20;-0.20;1.00
7028;DHT22;3555;53.248;10.336;2023-03-01T07:44:47;0.00;1.00
7028;DHT22;3555;53.248;10.336;2023-03-01T07:47:14;0.10;1.00
7028;DHT22;3555;53.248;10.336;2023-03-01T07:49:42;0.20;1.00
7028;DHT22;3555;53.248;10.336;2023-03-01T07:52:10;0.30;1.00
7028;DHT22;3555;53.248;10.336;2023-03-01T07:54:37;0.50;1.00
7028;DHT22;3555;53.248;10.336;2023-03-01T07:57:04;0.60;99.90
7028;DHT22;3555;53.248;10.336;2023-03-01T07:59:31;0.50;99.90
7028;DHT22;3555;53.248;10.336;2023-03-01T08:01:58;0.50;18.70
7028;DHT22;3555;53.248;10.336;2023-03-01T08:04:25;0.30;1.00
7028;DHT22;3555;53.248;10.336;2023-03-01T08:06:53;0.40;99.90
7028;DHT22;3555;53.248;10.336;2023-03-01T08:09:21;0.70;1.00
7028;DHT22;3555;53.248;10.336;2023-03-01T08:11:48;0.90;1.00
7028;DHT22;3555;53.248;10.336;2023-03-01T08:14:15;1.10;99.90
7028;DHT22;3555;53.248;10.336;2023-03-01T08:16:42;1.30;1.00
7028;DHT22;3555;53.248;10.336;2023-03-01T08:19:10;1.30;1.00
7028;DHT22;3555;53.248;10.336;2023-03-01T08:21:38;1.80;99.90
7028;DHT22;3555;53.248;10.336;2023-03-01T08:24:07;2.10;1.00
7028;DHT22;3555;53.248;10.336;2023-03-01T08:26:36;1.70;97.80
7028;DHT22;3555;53.248;10.336;2023-03-01T08:29:03;1.80;1.00
7028;DHT22;3555;53.248;10.336;2023-03-01T08:31:32;1.80;1.00
7028;DHT22;3555;53.248;10.336;2023-03-01T08:34:02;2.10;1.00
7028;DHT22;3555;53.248;10.336;2023-03-01T08:36:30;2.20;73.80
7028;DHT22;3555;53.248;10.336;2023-03-01T08:38:58;2.40;1.00
7028;DHT22;3555;53.248;10.336;2023-03-01T08:41:27;2.40;1.00
7028;DHT22;3555;53.248;10.336;2023-03-01T08:43:54;2.50;1.00
7028;DHT22;3555;53.248;10.336;2023-03-01T08:46:24;2.60;1.00
7028;DHT22;3555;53.248;10.336;2023-03-01T08:48:51;2.70;99.90
7028;DHT22;3555;53.248;10.336;2023-03-01T08:51:19;2.80;99.90
7028;DHT22;3555;53.248;10.336;2023-03-01T08:53:47;2.70;99.90
7028;DHT22;3555;53.248;10.336;2023-03-01T08:56:15;2.70;1.00
7028;DHT22;3555;53.248;10.336;2023-03-01T08:58:46;2.70;99.90
7028;DHT22;3555;53.248;10.336;2023-03-01T09:01:14;2.90;99.90
7028;DHT22;3555;53.248;10.336;2023-03-01T09:03:42;3.10;1.00
7028;DHT22;3555;53.248;10.336;2023-03-01T09:06:09;3.00;1.00
7028;DHT22;3555;53.248;10.336;2023-03-01T09:08:38;3.00;1.00
7028;DHT22;3555;53.248;10.336;2023-03-01T09:11:06;3.20;99.90
7028;DHT22;3555;53.248;10.336;2023-03-01T09:13:34;3.50;1.00
7028;DHT22;3555;53.248;10.336;2023-03-01T09:16:04;3.80;99.90
7028;DHT22;3555;53.248;10.336;2023-03-01T09:18:32;4.20;1.00
7028;DHT22;3555;53.248;10.336;2023-03-01T09:21:03;4.50;99.90
7028;DHT22;3555;53.248;10.336;2023-03-01T09:23:33;4.90;1.00
7028;DHT22;3555;53.248;10.336;2023-03-01T09:26:01;5.10;99.90
7028;DHT22;3555;53.248;10.336;2023-03-01T09:28:28;5.30;99.90
7028;DHT22;3555;53.248;10.336;2023-03-01T09:30:58;5.50;99.90
7028;DHT22;3555;53.248;10.336;2023-03-01T09:33:27;6.00;34.40
7028;DHT22;3555;53.248;10.336;2023-03-01T09:35:57;6.20;1.00
7028;DHT22;3555;53.248;10.336;2023-03-01T09:38:24;6.60;1.00
7028;DHT22;3555;53.248;10.336;2023-03-01T09:40:51;6.80;1.00
7028;DHT22;3555;53.248;10.336;2023-03-01T09:43:23;7.10;1.00
7028;DHT22;3555;53.248;10.336;2023-03-01T09:45:54;7.40;1.00
7028;DHT22;3555;53.248;10.336;2023-03-01T09:48:25;7.90;1.00
7028;DHT22;3555;53.248;10.336;2023-03-01T09:50:53;8.10;99.90
7028;DHT22;3555;53.248;10.336;2023-03-01T09:53:24;8.30;99.90
7028;DHT22;3555;53.248;10.336;2023-03-01T09:56:00;8.50;99.90
7028;DHT22;3555;53.248;10.336;2023-03-01T09:58:39;8.50;99.90
7028;DHT22;3555;53.248;10.336;2023-03-01T10:01:26;8.70;99.90
7028;DHT22;3555;53.248;10.336;2023-03-01T10:04:26;8.70;99.90
7028;DHT22;3555;53.248;10.336;2023-03-01T10:07:05;8.70;99.90
7028;DHT22;3555;53.248;10.336;2023-03-01T10:09:35;8.90;99.90
7028;DHT22;3555;53.248;10.336;2023-03-01T10:12:07;9.10;99.90
7028;DHT22;3555;53.248;10.336;2023-03-01T10:14:38;9.20;99.90
7028;DHT22;3555;53.248;10.336;2023-03-01T10:17:12;9.20;99.90
7028;DHT22;3555;53.248;10.336;2023-03-01T10:19:42;9.00;99.90
7028;DHT22;3555;53.248;10.336;2023-03-01T10:22:15;9.10;99.90
7028;DHT22;3555;53.248;10.336;2023-03-01T10:24:43;9.20;99.90
7028;DHT22;3555;53.248;10.336;2023-03-01T10:27:17;9.50;99.90
7028;DHT22;3555;53.248;10.336;2023-03-01T10:29:50;9.70;99.90
7028;DHT22;3555;53.248;10.336;2023-03-01T10:32:21;9.80;91.40
7028;DHT22;3555;53.248;10.336;2023-03-01T10:34:48;9.90;47.10
7028;DHT22;3555;53.248;10.336;2023-03-01T10:37:18;9.90;42.70
7028;DHT22;3555;53.248;10.336;2023-03-01T10:39:58;10.00;1.00
7028;DHT22;3555;53.248;10.336;2023-03-01T10:42:30;10.10;14.10
7028;DHT22;3555;53.248;10.336;2023-03-01T10:45:02;10.00;57.10
7028;DHT22;3555;53.248;10.336;2023-03-01T10:47:40;10.00;87.20
7028;DHT22;3555;53.248;10.336;2023-03-01T10:50:18;10.10;49.60
7028;DHT22;3555;53.248;10.336;2023-03-01T10:52:57;10.10;46.30
7028;DHT22;3555;53.248;10.336;2023-03-01T10:55:30;10.20;48.90
7028;DHT22;3555;53.248;10.336;2023-03-01T10:58:16;10.50;17.60
7028;DHT22;3555;53.248;10.336;2023-03-01T11:00:49;10.50;15.50
7028;DHT22;3555;53.248;10.336;2023-03-01T11:03:19;10.60;6.20
7028;DHT22;3555;53.248;10.336;2023-03-01T11:06:00;10.50;1.00
7028;DHT22;3555;53.248;10.336;2023-03-01T11:08:34;10.40;99.80
7028;DHT22;3555;53.248;10.336;2023-03-01T11:11:05;10.60;34.20
7028;DHT22;3555;53.248;10.336;2023-03-01T11:13:32;10.70;21.10
7028;DHT22;3555;53.248;10.336;2023-03-01T11:16:01;10.50;38.20
7028;DHT22;3555;53.248;10.336;2023-03-01T11:18:30;10.60;40.20
7028;DHT22;3555;53.248;10.336;2023-03-01T11:20:59;10.60;17.90
7028;DHT22;3555;53.248;10.336;2023-03-01T11:23:28;10.30;65.30
7028;DHT22;3555;53.248;10.336;2023-03-01T11:25:59;10.50;93.10
7028;DHT22;3555;53.248;10.336;2023-03-01T11:28:28;10.50;99.90
7028;DHT22;3555;53.248;10.336;2023-03-01T11:30:59;10.60;99.90
7028;DHT22;3555;53.248;10.336;2023-03-01T11:33:35;10.70;99.90
7028;DHT22;3555;53.248;10.336;2023-03-01T11:36:08;10.80;99.90
7028;DHT22;3555;53.248;10.336;2023-03-01T11:38:38;10.50;97.30
7028;DHT22;3555;53.248;10.336;2023-03-01T11:41:12;10.70;99.90
7028;DHT22;3555;53.248;10.336;2023-03-01T11:43:47;10.80;50.10
7028;DHT22;3555;53.248;10.336;2023-03-01T11:49:42;11.50;59.90
7028;DHT22;3555;53.248;10.336;2023-03-01T11:52:20;11.90;94.90
7028;DHT22;3555;53.248;10.336;2023-03-01T11:54:58;12.10;1.00
7028;DHT22;3555;53.248;10.336;2023-03-01T11:57:43;11.60;1.00
7028;DHT22;3555;53.248;10.336;2023-03-01T12:00:21;11.60;1.00
7028;DHT22;3555;53.248;10.336;2023-03-01T12:03:23;11.50;1.00
7028;DHT22;3555;53.248;10.336;2023-03-01T12:06:06;11.40;1.00
7028;DHT22;3555;53.248;10.336;2023-03-01T12:08:41;10.80;13.80
7028;DHT22;3555;53.248;10.336;2023-03-01T12:11:20;11.00;98.90
7028;DHT22;3555;53.248;10.336;2023-03-01T12:17:11;10.80;75.10
7028;DHT22;3555;53.248;10.336;2023-03-01T12:20:02;10.90;99.90
7028;DHT22;3555;53.248;10.336;2023-03-01T12:22:43;11.00;99.90
7028;DHT22;3555;53.248;10.336;2023-03-01T12:25:18;11.10;99.90
7028;DHT22;3555;53.248;10.336;2023-03-01T12:31:00;11.00;99.90
7028;DHT22;3555;53.248;10.336;2023-03-01T12:33:40;11.20;99.90
7028;DHT22;3555;53.248;10.336;2023-03-01T12:36:22;11.20;99.90
7028;DHT22;3555;53.248;10.336;2023-03-01T12:39:02;11.30;99.90
7028;DHT22;3555;53.248;10.336;2023-03-01T12:41:43;11.30;99.90
7028;DHT22;3555;53.248;10.336;2023-03-01T12:44:28;11.50;99.90
7028;DHT22;3555;53.248;10.336;2023-03-01T12:47:06;11.50;99.90
7028;DHT22;3555;53.248;10.336;2023-03-01T12:49:38;11.60;48.40
7028;DHT22;3555;53.248;10.336;2023-03-01T12:52:23;11.50;11.30
7028;DHT22;3555;53.248;10.336;2023-03-01T12:54:56;11.40;96.50
7028;DHT22;3555;53.248;10.336;2023-03-01T12:57:29;11.30;99.90
7028;DHT22;3555;53.248;10.336;2023-03-01T13:00:10;11.20;99.90
7028;DHT22;3555;53.248;10.336;2023-03-01T13:02:50;11.40;99.90
7028;DHT22;3555;53.248;10.336;2023-03-01T13:05:26;11.60;99.90
7028;DHT22;3555;53.248;10.336;2023-03-01T13:08:01;11.80;99.90
7028;DHT22;3555;53.248;10.336;2023-03-01T13:10:36;12.10;93.70
7028;DHT22;3555;53.248;10.336;2023-03-01T13:13:21;12.30;38.00
7028;DHT22;3555;53.248;10.336;2023-03-01T13:15:49;12.60;34.60
7028;DHT22;3555;53.248;10.336;2023-03-01T13:18:30;12.80;33.10
7028;DHT22;3555;53.248;10.336;2023-03-01T13:21:03;12.90;1.00
7028;DHT22;3555;53.248;10.336;2023-03-01T13:23:34;13.00;1.00
7028;DHT22;3555;53.248;10.336;2023-03-01T13:26:11;12.20;1.00
7028;DHT22;3555;53.248;10.336;2023-03-01T13:28:52;11.90;18.60
7028;DHT22;3555;53.248;10.336;2023-03-01T13:34:41;12.10;99.90
7028;DHT22;3555;53.248;10.336;2023-03-01T13:37:13;12.40;99.90
7028;DHT22;3555;53.248;10.336;2023-03-01T13:39:44;12.10;19.20
7028;DHT22;3555;53.248;10.336;2023-03-01T13:45:20;11.80;71.40
7028;DHT22;3555;53.248;10.336;2023-03-01T13:47:49;11.80;83.60
7028;DHT22;3555;53.248;10.336;2023-03-01T13:50:20;11.70;99.90
7028;DHT22;3555;53.248;10.336;2023-03-01T13:52:52;11.60;99.90
7028;DHT22;3555;53.248;10.336;2023-03-01T13:55:24;11.70;99.90
7028;DHT22;3555;53.248;10.336;2023-03-01T13:57:55;11.80;99.90
7028;DHT22;3555;53.248;10.336;2023-03-01T14:00:31;11.50;99.90
7028;DHT22;3555;53.248;10.336;2023-03-01T14:03:04;11.30;99.90
7028;DHT22;3555;53.248;10.336;2023-03-01T14:05:31;11.70;99.90
7028;DHT22;3555;53.248;10.336;2023-03-01T14:08:00;11.90;99.90
7028;DHT22;3555;53.248;10.336;2023-03-01T14:10:36;12.10;99.90
7028;DHT22;3555;53.248;10.336;2023-03-01T14:13:20;12.30;99.90
7028;DHT22;3555;53.248;10.336;2023-03-01T14:16:04;12.40;91.60
7028;DHT22;3555;53.248;10.336;2023-03-01T14:18:39;12.10;37.80
7028;DHT22;3555;53.248;10.336;2023-03-01T14:21:08;12.10;50.70
7028;DHT22;3555;53.248;10.336;2023-03-01T14:23:38;11.80;94.70
7028;DHT22;3555;53.248;10.336;2023-03-01T14:26:08;11.50;91.70
7028;DHT22;3555;53.248;10.336;2023-03-01T14:28:38;11.50;99.90
7028;DHT22;3555;53.248;10.336;2023-03-01T14:31:31;11.40;99.90
7028;DHT22;3555;53.248;10.336;2023-03-01T14:33:59;11.60;99.90
7028;DHT22;3555;53.248;10.336;2023-03-01T14:36:28;11.80;99.90
7028;DHT22;3555;53.248;10.336;2023-03-01T14:38:57;11.90;99.90
7028;DHT22;3555;53.248;10.336;2023-03-01T14:41:32;12.10;99.90
7028;DHT22;3555;53.248;10.336;2023-03-01T14:44:01;11.90;99.90
7028;DHT22;3555;53.248;10.336;2023-03-01T14:46:32;12.10;99.90
7028;DHT22;3555;53.248;10.336;2023-03-01T14:49:03;12.20;99.90
7028;DHT22;3555;53.248;10.336;2023-03-01T14:51:34;12.40;99.90
7028;DHT22;3555;53.248;10.336;2023-03-01T14:54:04;12.40;20.10
7028;DHT22;3555;53.248;10.336;2023-03-01T14:56:44;11.90;1.00
7028;DHT22;3555;53.248;10.336;2023-03-01T14:59:11;12.00;99.90
7028;DHT22;3555;53.248;10.336;2023-03-01T15:01:39;12.10;99.90
7028;DHT22;3555;53.248;10.336;2023-03-01T15:04:11;12.30;99.90
7028;DHT22;3555;53.248;10.336;2023-03-01T15:06:39;12.30;77.10
7028;DHT22;3555;53.248;10.336;2023-03-01T15:09:12;12.30;58.60
7028;DHT22;3555;53.248;10.336;2023-03-01T15:11:40;12.20;29.20
7028;DHT22;3555;53.248;10.336;2023-03-01T15:14:38;12.30;14.30
7028;DHT22;3555;53.248;10.336;2023-03-01T15:17:20;12.20;79.70
7028;DHT22;3555;53.248;10.336;2023-03-01T15:19:49;12.20;99.90
7028;DHT22;3555;53.248;10.336;2023-03-01T15:22:17;11.80;43.80
7028;DHT22;3555;53.248;10.336;2023-03-01T15:24:48;11.80;94.70
7028;DHT22;3555;53.248;10.336;2023-03-01T15:27:17;11.80;95.30
7028;DHT22;3555;53.248;10.336;2023-03-01T15:29:49;12.00;99.90
7028;DHT22;3555;53.248;10.336;2023-03-01T15:32:28;12.10;99.90
7028;DHT22;3555;53.248;10.336;2023-03-01T15:34:56;11.40;30.90
7028;DHT22;3555;53.248;10.336;2023-03-01T15:37:39;11.30;98.80
7028;DHT22;3555;53.248;10.336;2023-03-01T15:40:21;11.30;99.90
7028;DHT22;3555;53.248;10.336;2023-03-01T15:42:50;11.20;99.90
7028;DHT22;3555;53.248;10.336;2023-03-01T15:45:23;11.40;99.90
7028;DHT22;3555;53.248;10.336;2023-03-01T15:47:52;11.60;99.90
7028;DHT22;3555;53.248;10.336;2023-03-01T15:50:22;11.20;99.90
7028;DHT22;3555;53.248;10.336;2023-03-01T15:52:51;11.30;99.90
7028;DHT22;3555;53.248;10.336;2023-03-01T15:55:21;11.00;99.90
7028;DHT22;3555;53.248;10.336;2023-03-01T15:57:50;10.90;99.90
7028;DHT22;3555;53.248;10.336;2023-03-01T16:00:24;10.60;99.90
7028;DHT22;3555;53.248;10.336;2023-03-01T16:02:51;10.40;99.90
7028;DHT22;3555;53.248;10.336;2023-03-01T16:05:20;10.40;99.90
7028;DHT22;3555;53.248;10.336;2023-03-01T16:07:48;10.50;99.90
7028;DHT22;3555;53.248;10.336;2023-03-01T16:10:16;10.80;99.90
7028;DHT22;3555;53.248;10.336;2023-03-01T16:12:44;10.90;99.90
7028;DHT22;3555;53.248;10.336;2023-03-01T16:15:15;10.60;99.90
7028;DHT22;3555;53.248;10.336;2023-03-01T16:17:43;9.90;99.90
7028;DHT22;3555;53.248;10.336;2023-03-01T16:20:10;10.00;99.90
7028;DHT22;3555;53.248;10.336;2023-03-01T16:22:37;9.90;99.90
7028;DHT22;3555;53.248;10.336;2023-03-01T16:25:05;9.60;1.00
7028;DHT22;3555;53.248;10.336;2023-03-01T16:27:33;9.80;1.00
7028;DHT22;3555;53.248;10.336;2023-03-01T16:30:02;10.00;1.00
7028;DHT22;3555;53.248;10.336;2023-03-01T16:32:29;10.30;1.00
7028;DHT22;3555;53.248;10.336;2023-03-01T16:34:56;10.60;1.00